createdAt,value
2023-05-01T00:01:34.101Z,9.93
2023-05-01T00:04:21.853Z,8.10
2023-05-01T00:07:07.251Z,9.48
2023-05-01T00:09:52.658Z,8.35
2023-05-01T00:12:38.063Z,8.30
2023-05-01T00:15:23.328Z,7.93
2023-05-01T00:18:08.754Z,7.90
2023-05-01T00:20:54.436Z,7.45
2023-05-01T00:23:39.990Z,9.00
2023-05-01T00:26:30.371Z,10.30
2023-05-01T00:29:17.051Z,18.60
2023-05-01T00:32:02.679Z,10.93
2023-05-01T00:34:48.642Z,11.98
2023-05-01T00:37:34.563Z,13.35
2023-05-01T00:40:21.037Z,12.40
2023-05-01T00:43:06.917Z,10.32
2023-05-01T00:45:52.346Z,14.35
2023-05-01T00:48:37.768Z,11.18
2023-05-01T00:51:23.477Z,11.43
2023-05-01T00:54:15.111Z,10.55
2023-05-01T00:57:00.871Z,8.68
2023-05-01T00:59:46.528Z,9.18
2023-05-01T01:02:33.994Z,8.18
2023-05-01T01:05:22.111Z,9.38
2023-05-01T01:08:33.841Z,8.07
2023-05-01T01:12:02.002Z,6.70
2023-05-01T01:15:12.574Z,6.57
2023-05-01T01:18:18.051Z,5.85
2023-05-01T01:21:09.013Z,4.30
2023-05-01T01:24:01.016Z,4.32
2023-05-01T01:27:02.648Z,4.65
2023-05-01T01:29:56.194Z,4.97
2023-05-01T01:33:10.295Z,6.45
2023-05-01T01:35:58.091Z,5.45
2023-05-01T01:38:46.799Z,4.35
2023-05-01T01:41:34.459Z,4.20
2023-05-01T01:44:34.797Z,3.95
2023-05-01T01:47:22.518Z,4.22
2023-05-01T01:50:09.522Z,4.82
2023-05-01T01:52:55.222Z,3.90
2023-05-01T01:55:41.691Z,3.75
2023-05-01T01:58:27.854Z,4.15
2023-05-01T02:01:14.287Z,4.63
2023-05-01T02:04:01.146Z,4.40
2023-05-01T02:06:48.292Z,3.95
2023-05-01T02:09:34.326Z,4.20
2023-05-01T02:12:21.147Z,4.57
2023-05-01T02:15:08.163Z,4.25
2023-05-01T02:17:54.216Z,4.32
2023-05-01T02:20:41.579Z,4.40
2023-05-01T02:23:31.253Z,4.13
2023-05-01T02:26:18.132Z,4.63
2023-05-01T02:29:05.002Z,6.60
2023-05-01T02:31:50.639Z,7.93
2023-05-01T02:34:36.732Z,6.18
2023-05-01T02:37:22.040Z,4.60
2023-05-01T02:40:08.605Z,4.68
2023-05-01T02:42:55.127Z,4.22
2023-05-01T02:45:41.599Z,4.95
2023-05-01T02:48:28.382Z,5.70
2023-05-01T02:51:14.190Z,4.35
2023-05-01T02:53:59.905Z,5.15
2023-05-01T02:56:46.466Z,5.50
2023-05-01T02:59:32.776Z,4.53
2023-05-01T03:02:18.293Z,4.53
2023-05-01T03:05:04.076Z,5.53
2023-05-01T03:07:51.356Z,5.85
2023-05-01T03:10:37.111Z,5.38
2023-05-01T03:13:23.045Z,6.70
2023-05-01T03:16:08.451Z,5.78
2023-05-01T03:18:54.245Z,5.30
2023-05-01T03:21:39.500Z,8.73
2023-05-01T03:24:24.942Z,9.60
2023-05-01T03:27:11.572Z,6.05
2023-05-01T03:29:57.569Z,5.68
2023-05-01T03:32:44.642Z,5.68
2023-05-01T03:35:38.215Z,6.93
2023-05-01T03:38:24.543Z,6.32
2023-05-01T03:41:28.441Z,7.10
2023-05-01T03:44:28.053Z,7.43
2023-05-01T03:47:13.511Z,6.55
2023-05-01T03:50:02.445Z,7.47
2023-05-01T03:52:49.462Z,6.57
2023-05-01T03:55:35.364Z,8.10
2023-05-01T03:58:22.336Z,7.10
2023-05-01T04:01:08.969Z,7.82
2023-05-01T04:03:59.934Z,7.82
2023-05-01T04:06:46.141Z,5.65
2023-05-01T04:09:31.847Z,5.13
2023-05-01T04:12:17.772Z,5.90
2023-05-01T04:15:03.860Z,6.15
2023-05-01T04:17:50.136Z,5.50
2023-05-01T04:20:36.765Z,5.80
2023-05-01T04:23:23.179Z,5.43
2023-05-01T04:26:13.174Z,6.10
2023-05-01T04:28:58.563Z,5.25
2023-05-01T04:31:45.014Z,5.93
2023-05-01T04:34:30.957Z,7.25
2023-05-01T04:37:18.362Z,7.53
2023-05-01T04:40:04.557Z,7.75
2023-05-01T04:42:50.245Z,8.07
2023-05-01T04:45:36.206Z,8.27
2023-05-01T04:48:22.813Z,7.82
2023-05-01T04:51:08.486Z,8.90
2023-05-01T04:53:54.456Z,8.48
2023-05-01T04:56:42.953Z,8.82
2023-05-01T04:59:29.474Z,8.52
2023-05-01T05:02:15.136Z,8.38
2023-05-01T05:05:00.863Z,9.07
2023-05-01T05:07:47.121Z,8.68
2023-05-01T05:10:50.287Z,10.70
2023-05-01T05:13:48.737Z,10.07
2023-05-01T05:16:34.973Z,10.55
2023-05-01T05:19:20.719Z,11.18
2023-05-01T05:22:06.242Z,9.18
2023-05-01T05:25:04.312Z,10.38
2023-05-01T05:27:50.831Z,9.45
2023-05-01T05:30:37.142Z,9.88
2023-05-01T05:33:27.214Z,10.63
2023-05-01T05:36:12.700Z,9.13
2023-05-01T05:39:00.677Z,9.13
2023-05-01T05:41:46.447Z,9.00
2023-05-01T05:44:33.089Z,8.32
2023-05-01T05:47:19.063Z,9.18
2023-05-01T05:50:04.604Z,8.38
2023-05-01T05:52:51.698Z,8.95
2023-05-01T05:55:37.601Z,9.95
2023-05-01T05:58:24.979Z,9.65
2023-05-01T06:01:11.705Z,8.85
2023-05-01T06:03:58.431Z,8.77
2023-05-01T06:06:45.982Z,7.65
2023-05-01T06:09:32.382Z,8.05
2023-05-01T06:12:18.119Z,5.72
2023-05-01T06:15:04.471Z,7.32
2023-05-01T06:17:51.305Z,7.22
2023-05-01T06:20:37.386Z,5.88
2023-05-01T06:23:24.242Z,5.82
2023-05-01T06:26:40.320Z,5.65
2023-05-01T06:29:25.890Z,5.65
2023-05-01T06:32:11.694Z,4.95
2023-05-01T06:34:57.658Z,4.32
2023-05-01T06:37:43.686Z,4.65
2023-05-01T06:40:31.749Z,3.55
2023-05-01T06:43:17.121Z,4.32
2023-05-01T06:46:04.567Z,4.70
2023-05-01T06:48:50.577Z,4.75
2023-05-01T06:51:36.506Z,5.10
2023-05-01T06:54:21.925Z,3.47
2023-05-01T06:57:07.766Z,4.13
2023-05-01T06:59:54.320Z,3.42
2023-05-01T07:02:41.089Z,3.53
2023-05-01T07:05:27.005Z,3.70
2023-05-01T07:08:12.632Z,3.65
2023-05-01T07:10:58.263Z,3.13
2023-05-01T07:13:43.841Z,3.63
2023-05-01T07:16:29.351Z,3.25
2023-05-01T07:19:15.401Z,3.22
2023-05-01T07:22:00.967Z,2.08
2023-05-01T07:24:46.530Z,3.30
2023-05-01T07:27:31.778Z,2.65
2023-05-01T07:30:17.033Z,3.10
2023-05-01T07:33:02.430Z,3.20
2023-05-01T07:35:47.739Z,2.25
2023-05-01T07:38:33.517Z,3.30
2023-05-01T07:41:19.223Z,2.80
2023-05-01T07:44:04.686Z,2.92
2023-05-01T07:46:50.274Z,3.05
2023-05-01T07:49:39.869Z,2.92
2023-05-01T07:52:25.248Z,2.72
2023-05-01T07:55:11.007Z,2.38
2023-05-01T07:57:56.492Z,2.50
2023-05-01T08:00:41.942Z,2.47
2023-05-01T08:03:31.191Z,2.30
2023-05-01T08:06:16.810Z,2.03
2023-05-01T08:09:02.198Z,2.58
2023-05-01T08:11:47.589Z,2.40
2023-05-01T08:14:33.268Z,2.42
2023-05-01T08:17:19.102Z,2.78
2023-05-01T08:20:05.177Z,2.10
2023-05-01T08:22:51.301Z,2.20
2023-05-01T08:25:37.157Z,1.52
2023-05-01T08:28:23.121Z,2.28
2023-05-01T08:31:10.108Z,1.40
2023-05-01T08:33:55.445Z,2.30
2023-05-01T08:36:40.776Z,2.00
2023-05-01T08:39:26.073Z,1.88
2023-05-01T08:42:11.546Z,2.13
2023-05-01T08:44:59.337Z,2.10
2023-05-01T08:47:45.591Z,2.08
2023-05-01T08:50:31.964Z,1.35
2023-05-01T08:53:18.973Z,1.52
2023-05-01T08:56:07.732Z,1.73
2023-05-01T08:58:54.087Z,1.60
2023-05-01T09:01:40.189Z,1.40
2023-05-01T09:04:25.977Z,1.80
2023-05-01T09:07:11.909Z,1.50
2023-05-01T09:09:57.610Z,1.60
2023-05-01T09:12:46.142Z,1.65
2023-05-01T09:15:32.550Z,2.00
2023-05-01T09:18:18.388Z,1.90
2023-05-01T09:21:03.857Z,1.95
2023-05-01T09:23:53.889Z,1.52
2023-05-01T09:26:41.968Z,1.83
2023-05-01T09:29:37.815Z,1.90
2023-05-01T09:32:30.208Z,1.88
2023-05-01T09:35:17.985Z,1.70
2023-05-01T09:38:04.075Z,1.48
2023-05-01T09:40:50.410Z,1.70
2023-05-01T09:43:35.578Z,1.40
2023-05-01T09:46:23.019Z,1.92
2023-05-01T09:52:10.860Z,1.40
2023-05-01T09:55:13.765Z,1.35
2023-05-01T09:57:59.467Z,1.33
2023-05-01T10:00:49.646Z,1.73
2023-05-01T10:03:35.445Z,1.88
2023-05-01T10:06:28.714Z,1.92
2023-05-01T10:09:27.700Z,1.35
2023-05-01T10:12:24.203Z,1.35
2023-05-01T10:15:23.349Z,1.30
2023-05-01T10:18:11.883Z,0.60
2023-05-01T10:20:57.419Z,1.50
2023-05-01T10:23:42.838Z,1.88
2023-05-01T10:26:28.646Z,1.30
2023-05-01T10:29:14.739Z,1.55
2023-05-01T10:32:01.095Z,1.65
2023-05-01T10:34:50.404Z,1.63
2023-05-01T10:37:46.888Z,1.77
2023-05-01T10:40:48.263Z,1.90
2023-05-01T10:43:33.911Z,1.30
2023-05-01T10:46:19.332Z,1.27
2023-05-01T10:49:05.050Z,1.75
2023-05-01T10:52:01.170Z,1.23
2023-05-01T10:54:47.057Z,1.73
2023-05-01T10:57:43.784Z,1.05
2023-05-01T11:00:29.241Z,0.75
2023-05-01T11:03:24.431Z,2.00
2023-05-01T11:06:09.962Z,1.80
2023-05-01T11:08:56.236Z,1.50
2023-05-01T11:11:44.558Z,1.48
2023-05-01T11:14:52.378Z,2.10
2023-05-01T11:17:41.401Z,2.17
2023-05-01T11:20:26.936Z,1.90
2023-05-01T11:23:17.780Z,2.10
2023-05-01T11:26:04.911Z,2.70
2023-05-01T11:28:54.288Z,1.83
2023-05-01T11:31:39.849Z,2.80
2023-05-01T11:34:26.031Z,2.03
2023-05-01T11:37:11.612Z,1.77
2023-05-01T11:39:57.037Z,2.60
2023-05-01T11:42:42.430Z,1.80
2023-05-01T11:45:27.873Z,2.25
2023-05-01T11:48:16.597Z,1.85
2023-05-01T11:51:12.324Z,2.55
2023-05-01T11:54:09.562Z,0.90
2023-05-01T11:57:02.210Z,1.83
2023-05-01T11:59:48.167Z,2.10
2023-05-01T12:02:33.798Z,1.48
2023-05-01T12:05:19.321Z,2.30
2023-05-01T12:08:12.693Z,2.30
2023-05-01T12:10:58.439Z,2.20
2023-05-01T12:13:44.247Z,2.08
2023-05-01T12:16:30.617Z,2.20
2023-05-01T12:19:17.448Z,2.20
2023-05-01T12:22:09.547Z,1.88
2023-05-01T12:24:55.015Z,1.80
2023-05-01T12:27:46.723Z,2.15
2023-05-01T12:30:32.155Z,2.20
2023-05-01T12:33:20.221Z,2.13
2023-05-01T12:36:13.242Z,1.45
2023-05-01T12:39:00.847Z,1.77
2023-05-01T12:41:48.320Z,2.35
2023-05-01T12:44:33.744Z,2.08
2023-05-01T12:47:19.095Z,2.80
2023-05-01T12:50:04.798Z,1.58
2023-05-01T12:52:50.243Z,2.30
2023-05-01T12:55:46.689Z,2.28
2023-05-01T12:58:37.278Z,1.90
2023-05-01T13:01:27.466Z,2.30
2023-05-01T13:04:13.262Z,1.63
2023-05-01T13:06:59.430Z,1.85
2023-05-01T13:09:55.365Z,2.33
2023-05-01T13:12:45.498Z,2.50
2023-05-01T13:15:30.944Z,2.55
2023-05-01T13:18:16.322Z,2.17
2023-05-01T13:21:10.090Z,2.40
2023-05-01T13:26:41.983Z,1.73
2023-05-01T13:29:28.305Z,1.42
2023-05-01T13:32:13.967Z,1.70
2023-05-01T13:35:02.924Z,1.90
2023-05-01T13:37:49.135Z,2.00
2023-05-01T13:40:34.778Z,3.65
2023-05-01T13:43:22.362Z,1.88
2023-05-01T13:46:07.782Z,2.50
2023-05-01T13:48:53.528Z,2.10
2023-05-01T13:51:44.419Z,3.00
2023-05-01T13:54:29.752Z,2.63
2023-05-01T13:57:18.620Z,2.22
2023-05-01T14:00:07.273Z,3.13
2023-05-01T14:02:59.848Z,3.05
2023-05-01T14:05:46.605Z,3.65
2023-05-01T14:08:32.624Z,2.15
2023-05-01T14:11:18.420Z,2.10
2023-05-01T14:14:05.028Z,3.20
2023-05-01T14:16:51.101Z,1.85
2023-05-01T14:19:37.524Z,2.92
2023-05-01T14:22:23.348Z,3.03
2023-05-01T14:25:09.103Z,2.63
2023-05-01T14:27:55.201Z,3.30
2023-05-01T14:30:41.485Z,3.60
2023-05-01T14:33:27.241Z,3.15
2023-05-01T14:36:12.920Z,3.50
2023-05-01T14:39:02.536Z,3.40
2023-05-01T14:41:47.958Z,2.95
2023-05-01T14:44:33.893Z,3.97
2023-05-01T14:47:21.769Z,3.10
2023-05-01T14:50:07.678Z,3.67
2023-05-01T14:52:58.172Z,3.40
2023-05-01T14:55:43.598Z,3.45
2023-05-01T14:58:28.987Z,3.38
2023-05-01T15:01:15.216Z,3.63
2023-05-01T15:04:03.365Z,3.20
2023-05-01T15:06:50.178Z,3.53
2023-05-01T15:09:35.609Z,3.58
2023-05-01T15:12:20.985Z,4.22
2023-05-01T15:15:07.355Z,3.65
2023-05-01T15:17:53.200Z,3.80
2023-05-01T15:20:38.652Z,4.32
2023-05-01T15:23:25.110Z,3.72
2023-05-01T15:26:11.032Z,3.25
2023-05-01T15:28:56.756Z,3.72
2023-05-01T15:31:42.435Z,3.97
2023-05-01T15:34:28.722Z,3.72
2023-05-01T15:37:14.197Z,4.18
2023-05-01T15:39:59.624Z,3.90
2023-05-01T15:42:48.072Z,3.72
2023-05-01T15:45:34.001Z,3.67
2023-05-01T15:48:19.597Z,3.97
2023-05-01T15:51:05.564Z,3.42
2023-05-01T15:53:51.470Z,3.53
2023-05-01T15:56:37.709Z,3.70
2023-05-01T15:59:23.397Z,3.92
2023-05-01T16:02:09.318Z,3.92
2023-05-01T16:04:54.965Z,4.15
2023-05-01T16:07:40.443Z,3.83
2023-05-01T16:10:26.036Z,3.80
2023-05-01T16:13:11.360Z,4.38
2023-05-01T16:15:56.823Z,4.50
2023-05-01T16:18:42.174Z,3.17
2023-05-01T16:21:28.152Z,3.50
2023-05-01T16:24:14.374Z,4.03
2023-05-01T16:26:59.832Z,4.00
2023-05-01T16:29:45.523Z,4.30
2023-05-01T16:32:31.170Z,3.80
2023-05-01T16:35:18.374Z,4.18
2023-05-01T16:38:03.813Z,3.60
2023-05-01T16:40:49.404Z,4.65
2023-05-01T16:43:35.464Z,3.88
2023-05-01T16:46:21.201Z,4.20
2023-05-01T16:49:06.376Z,3.90
2023-05-01T16:51:56.518Z,4.03
2023-05-01T16:54:41.910Z,4.10
2023-05-01T16:57:27.906Z,4.13
2023-05-01T17:00:14.864Z,4.13
2023-05-01T17:03:00.584Z,4.15
2023-05-01T17:05:46.289Z,4.10
2023-05-01T17:08:31.813Z,3.95
2023-05-01T17:11:18.136Z,4.13
2023-05-01T17:14:04.950Z,3.85
2023-05-01T17:16:51.074Z,4.22
2023-05-01T17:19:38.919Z,4.18
2023-05-01T17:22:25.184Z,4.43
2023-05-01T17:25:11.513Z,4.00
2023-05-01T17:27:56.833Z,4.40
2023-05-01T17:30:42.382Z,4.28
2023-05-01T17:33:30.221Z,3.88
2023-05-01T17:36:15.703Z,4.40
2023-05-01T17:39:01.565Z,4.10
2023-05-01T17:41:47.637Z,4.00
2023-05-01T17:44:33.817Z,4.25
2023-05-01T17:47:19.718Z,4.47
2023-05-01T17:50:05.640Z,4.30
2023-05-01T17:52:51.595Z,4.43
2023-05-01T17:55:38.968Z,4.60
2023-05-01T17:58:26.381Z,4.28
2023-05-01T18:01:14.364Z,4.90
2023-05-01T18:04:00.584Z,4.43
2023-05-01T18:06:46.389Z,4.80
2023-05-01T18:09:32.239Z,4.30
2023-05-01T18:12:17.814Z,4.40
2023-05-01T18:15:05.617Z,4.70
2023-05-01T18:17:51.536Z,5.55
2023-05-01T18:20:37.207Z,7.38
2023-05-01T18:23:25.191Z,6.05
2023-05-01T18:26:10.890Z,5.85
2023-05-01T18:28:56.379Z,6.25
2023-05-01T18:31:42.028Z,8.13
2023-05-01T18:34:27.455Z,7.53
2023-05-01T18:37:12.980Z,12.50
2023-05-01T18:39:58.873Z,19.88
2023-05-01T18:42:44.721Z,11.80
2023-05-01T18:45:30.889Z,11.00
2023-05-01T18:48:16.688Z,15.57
2023-05-01T18:51:09.141Z,22.73
2023-05-01T18:53:54.973Z,32.00
2023-05-01T18:56:40.305Z,20.50
2023-05-01T18:59:30.840Z,10.82
2023-05-01T19:02:16.467Z,8.60
2023-05-01T19:05:02.387Z,10.18
2023-05-01T19:07:51.781Z,12.27
2023-05-01T19:10:37.407Z,11.40
2023-05-01T19:13:22.835Z,13.35
2023-05-01T19:16:08.710Z,10.75
2023-05-01T19:18:54.667Z,10.57
2023-05-01T19:21:39.892Z,12.15
2023-05-01T19:24:25.742Z,10.90
2023-05-01T19:27:11.811Z,9.73
2023-05-01T19:30:00.938Z,10.30
2023-05-01T19:32:47.335Z,9.80
2023-05-01T19:35:33.185Z,8.63
2023-05-01T19:38:19.245Z,10.27
2023-05-01T19:41:04.627Z,11.00
2023-05-01T19:43:49.882Z,12.13
2023-05-01T19:46:35.343Z,12.77
2023-05-01T19:49:20.769Z,11.07
2023-05-01T19:52:06.557Z,10.30
2023-05-01T19:54:52.049Z,10.50
2023-05-01T19:57:37.546Z,10.52
2023-05-01T20:00:23.647Z,9.05
2023-05-01T20:03:09.798Z,7.95
2023-05-01T20:05:56.111Z,8.98
2023-05-01T20:08:42.265Z,12.63
2023-05-01T20:11:27.768Z,13.18
2023-05-01T20:14:13.078Z,13.25
2023-05-01T20:16:58.580Z,9.95
2023-05-01T20:19:43.934Z,12.30
2023-05-01T20:22:29.658Z,11.07
2023-05-01T20:25:15.407Z,10.40
2023-05-01T20:28:03.263Z,9.15
2023-05-01T20:30:49.253Z,9.30
2023-05-01T20:33:34.594Z,8.90
2023-05-01T20:36:20.461Z,8.43
2023-05-01T20:39:06.074Z,9.50
2023-05-01T20:41:51.518Z,9.38
2023-05-01T20:44:37.047Z,9.00
2023-05-01T20:47:22.565Z,8.82
2023-05-01T20:50:08.615Z,9.05
2023-05-01T20:52:55.300Z,13.10
2023-05-01T20:55:40.599Z,14.35
2023-05-01T20:58:26.187Z,13.50
2023-05-01T21:01:12.045Z,15.00
2023-05-01T21:03:59.868Z,13.95
2023-05-01T21:06:45.800Z,13.25
2023-05-01T21:09:31.472Z,18.20
2023-05-01T21:12:17.103Z,13.88
2023-05-01T21:15:03.428Z,11.95
2023-05-01T21:17:49.488Z,11.18
2023-05-01T21:20:35.368Z,10.55
2023-05-01T21:23:21.028Z,9.73
2023-05-01T21:26:06.606Z,10.02
2023-05-01T21:28:52.074Z,10.07
2023-05-01T21:31:38.769Z,11.52
2023-05-01T21:34:24.142Z,9.98
2023-05-01T21:37:10.649Z,10.90
2023-05-01T21:40:00.929Z,9.45
2023-05-01T21:42:46.948Z,9.35
2023-05-01T21:45:36.699Z,8.45
2023-05-01T21:48:22.324Z,7.95
2023-05-01T21:51:08.116Z,6.30
2023-05-01T21:53:54.450Z,5.93
2023-05-01T21:56:39.739Z,6.05
2023-05-01T21:59:28.147Z,6.90
2023-05-01T22:02:13.950Z,7.05
2023-05-01T22:04:59.395Z,9.85
2023-05-01T22:07:46.937Z,8.52
2023-05-01T22:10:32.806Z,7.35
2023-05-01T22:13:18.296Z,7.72
2023-05-01T22:16:04.036Z,7.68
2023-05-01T22:18:50.570Z,6.90
2023-05-01T22:21:36.297Z,8.05
2023-05-01T22:24:22.067Z,6.57
2023-05-01T22:27:07.416Z,6.88
2023-05-01T22:29:54.250Z,6.15
2023-05-01T22:32:48.353Z,6.57
2023-05-01T22:35:33.728Z,7.40
2023-05-01T22:38:19.117Z,7.60
2023-05-01T22:41:04.522Z,7.72
2023-05-01T22:43:49.846Z,7.03
2023-05-01T22:46:35.328Z,6.55
2023-05-01T22:49:21.320Z,6.55
2023-05-01T22:52:06.876Z,6.72
2023-05-01T22:54:52.715Z,6.80
2023-05-01T22:57:38.130Z,6.80
2023-05-01T23:00:23.656Z,6.40
2023-05-01T23:03:09.573Z,6.28
2023-05-01T23:05:55.012Z,6.70
2023-05-01T23:08:41.093Z,7.57
2023-05-01T23:11:33.960Z,6.47
2023-05-01T23:14:19.575Z,6.35
2023-05-01T23:17:05.007Z,6.78
2023-05-01T23:19:50.275Z,6.03
2023-05-01T23:22:38.124Z,6.25
2023-05-01T23:25:25.766Z,6.63
2023-05-01T23:28:12.176Z,6.38
2023-05-01T23:30:59.944Z,6.70
2023-05-01T23:33:45.606Z,6.93
2023-05-01T23:36:31.582Z,6.93
2023-05-01T23:39:16.814Z,6.32
2023-05-01T23:42:02.554Z,5.90
2023-05-01T23:44:48.521Z,6.07
2023-05-01T23:47:34.101Z,6.30
2023-05-01T23:50:19.518Z,9.80
2023-05-01T23:53:08.879Z,6.57
2023-05-01T23:55:54.489Z,5.70
2023-05-01T23:58:40.428Z,6.13
